Latest Weather Observations for Kingfish B

IDV60801

Issued at 10:05 am EDT Friday 31 October 2014 (issued every 30 minutes, with the page automatically refreshed every 10 minutes)

About weather observations | Map of weather stations | Latest weather observations for VIC | Other Formats
Station Details ID: 400139 Name: KINGFISH B (PLATFORM) Lat: -38.60 Lon: 148.19 Height: 31.4 m
Data from the previous 72 hours. | See also: Recent months for locations in Victoria
Date/Time
EDT
Temp
°C
App
Temp
°C
Dew
Point
Rel
Hum
%
Delta-T
°C
Wind Press
QNH
hPa
Press
MSL
hPa
Rain
since 9 am
mm
Dir
 
Spd
km/h
Gust
km/h
Spd
kts
Gust
kts
31/10:00am 18.1 16.4 11.1 63 3.8 NE 11 13 6 7 1010.8 - -
31/09:50am 18.4 17.1 11.2 63 3.9 NE 9 11 5 6 1010.9 - -
31/09:40am 18.2 17.3 11.3 64 3.8 NE 7 11 4 6 1011.0 - -
31/09:30am 18.2 16.5 11.1 63 3.9 NE 11 13 6 7 1011.1 - -
31/09:20am 18.3 17.0 11.1 63 3.9 NE 9 13 5 7 1011.1 - -
31/09:10am 18.2 16.8 10.9 62 3.9 NE 9 11 5 6 1011.0 - -
31/09:00am 18.0 16.2 10.8 63 3.9 NE 11 13 6 7 1010.9 - -
31/08:50am 17.8 16.3 10.7 63 3.8 NE 9 13 5 7 1011.0 - -
31/08:40am 17.7 16.2 10.7 63 3.8 NE 9 13 5 7 1011.1 - -
31/08:30am 17.9 16.1 10.8 63 3.8 NE 11 13 6 7 1011.2 - -
31/08:20am 17.7 16.2 10.7 63 3.8 NE 9 11 5 6 1011.3 - -
31/08:10am 17.5 16.4 10.6 64 3.7 NE 7 9 4 5 1011.4 - -
31/08:00am 17.0 16.0 10.4 65 3.5 NE 6 7 3 4 1011.4 - -
31/07:50am 16.4 15.9 10.6 68 3.1 NE 4 6 2 3 1011.5 - -
31/07:40am 15.5 14.9 10.5 72 2.6 NE 4 6 2 3 1011.4 - -
31/07:20am 14.7 13.7 10.3 75 2.3 NE 6 6 3 3 1011.4 - -
31/07:10am 14.7 14.1 10.4 75 2.3 NNE 4 6 2 3 1011.5 - -
31/07:00am 14.7 14.1 10.4 75 2.3 NNE 4 4 2 2 1011.5 - -
31/06:50am 14.6 14.0 10.3 75 2.3 NNE 4 6 2 3 1011.5 - -
31/06:40am 14.5 14.2 10.1 75 2.3 NNE 2 4 1 2 1011.4 - -
31/06:30am 14.5 14.2 10.1 75 2.3 NNE 2 4 1 2 1011.4 - -
31/06:20am 14.4 14.1 10.1 75 2.2 NNE 2 4 1 2 1011.3 - -
31/05:40am 14.3 13.6 9.9 75 2.3 NNE 4 6 2 3 1011.2 - -
31/05:20am 14.5 13.8 10.1 75 2.3 NNE 4 6 2 3 1011.3 - -
31/05:10am 14.5 13.4 10.1 75 2.3 NNE 6 6 3 3 1011.3 - -
31/05:00am 14.7 14.4 10.1 74 2.4 NNE 2 6 1 3 1011.5 - -
31/04:50am 15.1 14.9 10.4 73 2.5 NNW 2 6 1 3 1011.7 - -
31/04:40am 15.5 15.0 10.6 72 2.6 NW 4 6 2 3 1011.9 - -
31/04:30am 15.9 15.9 11.0 72 2.6 NW 2 4 1 2 1012.0 - -
31/04:20am 15.8 15.7 10.9 72 2.6 NW 2 4 1 2 1012.1 - -
31/04:10am 15.7 16.0 10.8 72 2.6 WNW 0 2 0 1 1012.1 - -
31/04:00am 15.5 15.7 10.7 73 2.5 WNW 0 2 0 1 1012.2 - -
31/03:50am 15.3 15.5 10.5 73 2.5 WNW 0 4 0 2 1012.3 - -
31/03:40am 14.8 14.8 9.8 72 2.6 W 0 2 0 1 1012.4 - -
31/03:20am 15.5 15.6 10.3 71 2.7 W 0 2 0 1 1012.5 - -
31/03:10am 15.8 15.6 10.5 71 2.8 WNW 2 4 1 2 1012.6 - -
31/03:00am 15.8 15.7 10.7 71 2.7 WNW 2 4 1 2 1012.8 - -
31/02:50am 15.5 15.3 10.5 72 2.6 WNW 2 4 1 2 1013.0 - -
31/02:40am 15.6 15.4 10.4 71 2.7 W 2 4 1 2 1013.2 - -
31/02:30am 15.6 15.4 10.5 71 2.7 WNW 2 4 1 2 1013.1 - -
31/02:20am 15.7 15.6 10.7 72 2.7 W 2 4 1 2 1013.2 - -
31/02:10am 15.5 15.3 10.6 72 2.6 WNW 2 4 1 2 1013.4 - -
31/02:00am 15.5 15.4 10.7 73 2.5 WNW 2 4 1 2 1013.5 - -
31/01:50am 15.0 14.8 10.4 74 2.4 WNW 2 4 1 2 1013.7 - -
31/01:30am 14.3 13.9 9.8 74 2.3 W 2 4 1 2 1013.9 - -
31/01:20am 14.5 14.1 9.9 74 2.4 W 2 4 1 2 1014.0 - -
31/01:10am 14.5 14.5 9.7 73 2.5 W 0 2 0 1 1014.0 - -
31/01:00am 14.4 14.0 9.6 73 2.5 W 2 6 1 3 1013.9 - -
31/12:40am 14.7 14.4 10.2 74 2.4 W 2 6 1 3 1013.8 - -
31/12:30am 14.3 13.9 9.6 73 2.4 W 2 4 1 2 1013.8 - -
31/12:20am 14.2 13.3 9.4 73 2.5 WSW 4 7 2 4 1013.9 - -
31/12:10am 14.4 13.2 9.6 73 2.5 WSW 6 7 3 4 1013.9 - -
31/12:00am 14.5 14.1 9.7 73 2.5 WSW 2 6 1 3 1013.8 - -
 
Date/Time
EDT
Temp
°C
App
Temp
°C
Dew
Point
Rel
Hum
%
Delta-T
°C
Wind Press
QNH
hPa
Press
MSL
hPa
Rain
since 9 am
mm
Dir
 
Spd
km/h
Gust
km/h
Spd
kts
Gust
kts
30/11:50pm 14.6 13.8 9.8 73 2.5 WSW 4 4 2 2 1013.8 - -
30/11:40pm 14.7 13.6 9.9 73 2.5 WSW 6 7 3 4 1013.9 - -
30/11:30pm 14.8 13.7 9.9 72 2.5 WSW 6 7 3 4 1014.0 - -
30/11:20pm 14.8 14.1 9.9 72 2.5 SW 4 7 2 4 1014.0 - -
30/11:10pm 14.8 14.0 9.8 72 2.6 SW 4 7 2 4 1014.2 - -
30/11:00pm 14.7 13.9 9.8 72 2.5 SW 4 6 2 3 1014.3 - -
30/10:50pm 14.8 14.0 9.8 72 2.6 SW 4 7 2 4 1014.2 - -
30/10:40pm 14.8 13.5 9.8 72 2.6 SW 7 9 4 5 1014.2 - -
30/10:30pm 14.7 13.3 9.7 72 2.6 SW 7 11 4 6 1014.2 - -
30/10:20pm 14.6 12.9 9.7 72 2.5 SSW 9 13 5 7 1014.1 - -
30/10:10pm 14.6 12.9 9.8 73 2.5 SSW 9 13 5 7 1014.0 - -
30/10:00pm 14.7 12.2 9.7 72 2.6 SSW 13 19 7 10 1014.1 - -
30/09:50pm 14.8 11.5 9.7 71 2.6 SW 17 20 9 11 1014.1 - -
30/09:40pm 14.7 10.9 9.8 72 2.5 SW 20 26 11 14 1014.0 - -
30/09:30pm 14.7 10.9 9.8 72 2.5 SW 20 26 11 14 1013.8 - -
30/09:20pm 14.8 11.0 9.8 72 2.6 SW 20 26 11 14 1013.7 - -
30/09:10pm 14.8 11.0 9.8 72 2.6 SW 20 24 11 13 1013.7 - -
30/09:00pm 14.8 11.0 9.7 71 2.6 SW 20 24 11 13 1013.7 - -
30/08:50pm 14.7 11.1 9.7 72 2.6 SW 19 22 10 12 1013.7 - -
30/08:40pm 14.8 11.1 9.5 70 2.7 SSW 19 24 10 13 1013.8 - -
30/08:30pm 15.0 11.0 9.2 68 3.0 SSW 20 30 11 16 1013.7 - -
30/08:20pm 15.0 9.8 8.8 66 3.2 SSW 26 33 14 18 1013.6 - -
30/08:10pm 15.1 10.7 9.1 67 3.1 SSW 22 26 12 14 1013.5 - -
30/08:00pm 15.2 11.2 9.2 67 3.1 SW 20 28 11 15 1013.3 - -
30/07:50pm 15.2 10.1 9.1 67 3.1 SW 26 32 14 17 1013.3 - -
30/07:40pm 15.3 9.8 9.1 66 3.2 SW 28 33 15 18 1013.2 - -
30/07:30pm 15.3 9.8 9.1 66 3.2 SW 28 35 15 19 1013.1 - -
30/07:20pm 15.2 9.7 9.2 67 3.1 SW 28 35 15 19 1013.1 - -
30/07:10pm 15.0 9.5 9.1 68 3.0 SSW 28 35 15 19 1013.3 - -
30/07:00pm 14.8 9.0 9.3 69 2.8 SSW 30 35 16 19 1013.3 - -
30/06:50pm 14.8 9.8 9.7 71 2.6 SSW 26 33 14 18 1013.2 - -
30/06:30pm 14.9 8.6 9.1 68 3.0 SSW 32 39 17 21 1013.3 - -
30/06:20pm 15.0 8.8 9.3 68 2.9 SSW 32 39 17 21 1013.1 - -
30/06:10pm 14.9 9.9 9.4 69 2.8 SSW 26 32 14 17 1012.9 - -
30/06:00pm 14.9 10.2 9.3 69 2.9 SSW 24 32 13 17 1012.8 - -
30/05:50pm 15.0 10.7 9.4 69 2.9 SSW 22 28 12 15 1012.8 - -
30/05:40pm 15.1 11.2 9.6 69 2.8 SSW 20 26 11 14 1012.6 - -
30/05:30pm 14.9 10.7 9.6 70 2.7 SW 22 30 12 16 1012.5 - -
30/05:20pm 14.5 10.3 9.8 73 2.4 SSW 22 28 12 15 1012.6 - -
30/05:10pm 14.3 10.6 10.1 76 2.2 SSW 20 24 11 13 1012.6 - -
30/05:00pm 14.2 9.7 10.2 77 2.1 SSW 24 30 13 16 1012.6 - -
30/04:50pm 14.2 9.0 10.1 76 2.1 SSW 28 32 15 17 1012.7 - -
30/04:40pm 14.4 9.5 9.9 74 2.3 SSW 26 30 14 16 1012.7 - -
30/04:30pm 14.5 10.3 9.8 73 2.4 SSW 22 28 12 15 1012.7 - -
30/04:20pm 14.6 10.4 9.7 72 2.5 SSW 22 26 12 14 1012.7 - -
30/04:10pm 14.8 11.2 9.7 71 2.6 SSW 19 22 10 12 1012.7 - -
30/04:00pm 14.8 11.1 9.4 70 2.8 SSW 19 22 10 12 1012.7 - -
30/03:50pm 15.0 12.1 9.6 70 2.8 SSW 15 20 8 11 1012.7 - -
30/03:40pm 15.0 12.1 9.7 70 2.7 SSW 15 19 8 10 1012.7 - -
30/03:30pm 14.8 12.3 9.8 72 2.6 SSW 13 19 7 10 1012.8 - -
30/03:20pm 14.8 12.0 9.9 72 2.5 SSW 15 19 8 10 1012.8 - -
30/03:10pm 15.0 12.6 10.1 72 2.6 SSW 13 17 7 9 1012.9 - -
30/03:00pm 15.0 12.2 10.1 72 2.6 SSW 15 19 8 10 1013.0 - -
30/02:50pm 14.9 11.7 10.1 73 2.5 SSW 17 20 9 11 1013.1 - -
30/02:40pm 15.0 11.5 10.2 73 2.5 SSW 19 22 10 12 1013.2 - -
30/02:30pm 15.4 11.8 10.4 72 2.6 SSW 20 22 11 12 1013.4 - -
30/02:20pm 16.5 13.1 10.5 67 3.2 SSW 19 22 10 12 1013.4 - -
30/02:10pm 16.9 14.2 10.4 65 3.5 SW 15 19 8 10 1013.2 - -
30/02:00pm 17.0 14.7 10.4 65 3.5 SW 13 17 7 9 1013.2 - -
30/01:50pm 17.1 14.4 10.5 65 3.5 SW 15 19 8 10 1013.2 - -
30/01:40pm 17.3 14.3 10.7 65 3.5 SW 17 20 9 11 1013.2 - -
30/01:30pm 17.5 14.1 10.7 64 3.6 SW 19 22 10 12 1013.2 - -
30/01:20pm 17.7 14.8 10.9 64 3.7 SW 17 22 9 12 1013.3 - -
30/01:10pm 17.7 14.8 10.9 64 3.7 SW 17 20 9 11 1013.4 - -
30/01:00pm 17.7 15.1 10.8 64 3.7 WSW 15 19 8 10 1013.4 - -
30/12:50pm 17.8 15.3 10.9 64 3.7 WSW 15 19 8 10 1013.6 - -
30/12:40pm 17.8 15.6 10.8 63 3.8 WSW 13 20 7 11 1013.8 - -
30/12:30pm 17.8 15.3 11.1 65 3.6 WSW 15 19 8 10 1013.9 - -
30/12:20pm 17.7 16.1 11.6 67 3.3 W 11 17 6 9 1014.0 - -
30/12:10pm 17.5 15.5 11.4 67 3.3 W 13 17 7 9 1014.0 - -
30/12:00pm 17.7 15.2 11.2 65 3.5 W 15 17 8 9 1014.0 - -
30/11:50am 17.8 15.4 11.3 65 3.5 W 15 17 8 9 1014.1 - -
30/11:40am 17.7 15.3 11.5 67 3.4 W 15 17 8 9 1014.1 - -
30/11:30am 17.7 15.7 11.5 67 3.4 WNW 13 15 7 8 1014.1 - -
30/11:20am 18.1 16.1 11.5 65 3.6 WNW 13 15 7 8 1014.2 - -
30/11:10am 18.2 16.3 11.7 66 3.6 W 13 15 7 8 1014.2 - -
30/11:00am 17.9 15.9 11.4 65 3.5 WNW 13 15 7 8 1014.0 - -
30/10:50am 17.9 15.9 11.4 65 3.5 WNW 13 15 7 8 1013.9 - -
30/10:30am 18.1 15.8 11.6 66 3.6 WNW 15 17 8 9 1013.9 - -
30/10:20am 17.8 15.9 11.7 67 3.3 WNW 13 17 7 9 1014.1 - -
30/10:10am 17.6 15.6 11.6 68 3.3 W 13 15 7 8 1014.3 - -
30/10:00am 17.6 15.6 11.5 67 3.3 W 13 15 7 8 1014.2 - -
30/09:50am 17.7 15.6 11.3 66 3.5 WNW 13 17 7 9 1014.1 - -
30/09:40am 17.6 15.1 11.2 66 3.5 WNW 15 17 8 9 1013.9 - -
30/09:30am 17.4 14.6 11.4 68 3.3 WNW 17 17 9 9 1013.9 - -
30/09:20am 16.8 14.4 11.3 70 3.0 WNW 15 19 8 10 1014.0 - -
30/09:10am 16.6 14.1 11.0 69 3.0 WNW 15 17 8 9 1013.9 - -
30/09:00am 16.5 14.0 11.0 70 3.0 WNW 15 17 8 9 1013.8 - -
30/08:50am 16.4 13.9 11.0 70 2.9 WNW 15 17 8 9 1013.7 - -
30/08:40am 16.5 14.0 11.1 70 2.9 WNW 15 17 8 9 1013.7 - -
30/08:30am 16.4 14.0 11.3 72 2.8 WNW 15 17 8 9 1013.6 - -
30/08:20am 16.3 14.3 11.4 73 2.6 WNW 13 17 7 9 1013.6 - -
30/08:10am 16.2 14.2 11.5 73 2.5 WNW 13 15 7 8 1013.5 - -
30/08:00am 16.2 14.2 11.6 74 2.5 WNW 13 15 7 8 1013.4 - -
30/07:50am 15.9 13.9 11.6 75 2.3 WNW 13 15 7 8 1013.4 - -
30/07:40am 15.7 13.6 11.3 75 2.4 W 13 17 7 9 1013.5 - -
30/07:30am 15.7 13.2 11.2 74 2.4 W 15 19 8 10 1013.6 - -
30/07:20am 15.7 13.2 11.2 74 2.4 W 15 19 8 10 1013.6 - -
30/07:10am 16.1 13.3 11.3 73 2.6 W 17 19 9 10 1013.6 - -
30/07:00am 16.1 13.3 11.4 73 2.5 WNW 17 19 9 10 1013.6 - -
30/06:50am 16.0 13.1 11.1 72 2.6 WNW 17 19 9 10 1013.5 - -
30/06:40am 16.3 14.1 10.9 70 2.9 W 13 17 7 9 1013.5 - -
30/06:30am 16.4 14.7 11.2 71 2.8 WNW 11 13 6 7 1013.4 - -
30/06:20am 16.4 15.1 11.2 71 2.8 WNW 9 11 5 6 1013.4 - -
30/06:10am 16.3 15.0 11.1 71 2.8 WNW 9 11 5 6 1013.3 - -
30/06:00am 16.3 15.0 11.1 71 2.8 WNW 9 11 5 6 1013.3 - -
30/05:50am 16.2 14.4 11.0 71 2.8 WNW 11 13 6 7 1013.4 - -
30/05:40am 16.0 14.2 10.8 71 2.8 WNW 11 13 6 7 1013.5 - -
30/05:30am 16.2 14.4 10.8 70 2.9 WNW 11 13 6 7 1013.4 - -
30/05:20am 16.4 14.6 11.0 70 2.9 WNW 11 13 6 7 1013.4 - -
30/05:10am 16.3 14.9 10.9 70 2.9 WNW 9 13 5 7 1013.3 - -
30/05:00am 16.2 14.8 10.9 71 2.8 WNW 9 13 5 7 1013.3 - -
30/04:50am 16.2 14.8 10.9 71 2.8 WNW 9 11 5 6 1013.4 - -
30/04:40am 16.2 14.8 10.9 71 2.8 WNW 9 11 5 6 1013.4 - -
30/04:30am 16.2 14.8 10.9 71 2.8 WNW 9 11 5 6 1013.5 - -
30/04:10am 16.3 15.2 10.8 70 2.9 WNW 7 11 4 6 1013.6 - -
30/04:00am 16.4 15.3 10.8 69 3.0 WNW 7 11 4 6 1013.6 - -
30/03:50am 16.3 14.9 10.8 70 2.9 WNW 9 15 5 8 1013.8 - -
30/03:40am 16.2 14.0 10.9 71 2.8 WNW 13 20 7 11 1013.9 - -
30/03:30am 16.2 14.1 11.1 72 2.7 WNW 13 17 7 9 1013.9 - -
30/03:20am 16.1 13.7 11.3 73 2.6 WNW 15 19 8 10 1014.0 - -
30/03:10am 16.0 13.2 11.5 74 2.4 NW 17 20 9 11 1014.1 - -
30/03:00am 15.7 13.3 11.3 75 2.4 NW 15 19 8 10 1014.2 - -
30/02:50am 15.6 13.1 11.1 74 2.4 NW 15 19 8 10 1014.3 - -
30/02:40am 15.7 12.8 11.1 74 2.5 NW 17 19 9 10 1014.3 - -
30/02:30am 15.8 13.3 11.0 73 2.6 NW 15 19 8 10 1014.4 - -
30/02:20am 15.9 13.3 10.8 71 2.7 NNW 15 19 8 10 1014.5 - -
30/02:10am 15.7 13.7 10.2 70 2.9 NW 11 15 6 8 1014.7 - -
30/02:00am 15.7 13.7 10.2 70 2.9 NW 11 15 6 8 1014.8 - -
30/01:50am 16.0 13.6 10.2 68 3.1 NW 13 15 7 8 1014.9 - -
30/01:40am 16.0 14.0 10.3 69 3.0 NW 11 17 6 9 1015.0 - -
30/01:30am 16.0 13.7 10.5 70 2.9 NW 13 15 7 8 1015.2 - -
30/01:20am 16.0 13.7 10.6 70 2.9 NW 13 15 7 8 1015.2 - -
30/01:10am 16.0 14.2 10.7 71 2.8 NW 11 15 6 8 1015.3 - -
30/12:50am 15.8 14.0 10.7 71 2.7 NW 11 13 6 7 1015.6 - -
30/12:40am 15.9 14.5 10.8 71 2.7 NW 9 13 5 7 1015.7 - -
30/12:30am 16.0 14.6 10.9 72 2.7 NW 9 11 5 6 1015.7 - -
30/12:20am 15.9 14.5 10.9 72 2.7 WNW 9 13 5 7 1015.8 - -
30/12:10am 15.8 14.8 10.9 72 2.6 WNW 7 11 4 6 1015.8 - -
30/12:00am 15.5 14.4 10.8 73 2.5 WNW 7 11 4 6 1015.8 - -
 
Date/Time
EDT
Temp
°C
App
Temp
°C
Dew
Point
Rel
Hum
%
Delta-T
°C
Wind Press
QNH
hPa
Press
MSL
hPa
Rain
since 9 am
mm
Dir
 
Spd
km/h
Gust
km/h
Spd
kts
Gust
kts
29/11:50pm 15.3 14.2 10.8 74 2.4 W 7 11 4 6 1015.8 - -
29/11:40pm 14.9 13.8 10.5 75 2.3 W 7 9 4 5 1015.7 - -
29/11:30pm 14.7 13.2 10.4 75 2.3 WSW 9 11 5 6 1015.7 - -
29/11:20pm 14.5 12.9 10.2 75 2.2 WSW 9 13 5 7 1015.6 - -
29/11:10pm 14.5 12.5 10.2 75 2.2 SW 11 17 6 9 1015.6 - -
29/11:00pm 14.5 12.5 10.1 75 2.3 SW 11 15 6 8 1015.5 - -
29/10:50pm 14.6 12.6 10.1 74 2.3 SW 11 15 6 8 1015.6 - -
29/10:40pm 14.6 12.6 10.1 74 2.3 SW 11 15 6 8 1015.6 - -
29/10:30pm 14.7 11.9 10.1 74 2.4 SSW 15 19 8 10 1015.7 - -
29/10:20pm 14.8 11.1 10.1 73 2.5 SSW 20 24 11 13 1015.6 - -
29/10:10pm 14.8 11.1 10.0 73 2.5 SSW 20 24 11 13 1015.6 - -
29/10:00pm 15.1 11.5 10.0 71 2.7 SSW 19 26 10 14 1015.5 - -
29/09:50pm 15.3 11.6 10.0 70 2.8 SSW 20 28 11 15 1015.3 - -
29/09:40pm 15.4 10.8 9.7 69 3.0 SSW 24 30 13 16 1015.1 - -
29/09:30pm 15.1 10.1 9.6 69 2.8 SSW 26 35 14 19 1015.0 - -
29/09:20pm 14.9 11.1 9.7 71 2.7 SW 20 26 11 14 1014.9 - -
29/09:10pm 15.0 11.3 9.6 70 2.8 SSW 19 22 10 12 1015.0 - -
29/09:00pm 14.9 11.2 9.6 70 2.7 SSW 19 24 10 13 1015.1 - -
29/08:50pm 14.6 11.3 9.7 72 2.5 SSW 17 22 9 12 1015.2 - -
29/08:40pm 14.7 11.4 9.4 70 2.7 SSW 17 28 9 15 1015.2 - -
29/08:30pm 15.1 10.8 9.5 69 2.9 SSW 22 26 12 14 1015.1 - -
29/08:20pm 15.2 11.0 9.7 69 2.9 SSW 22 26 12 14 1015.0 - -
29/08:00pm 15.3 10.5 10.2 71 2.7 SSW 26 32 14 17 1014.8 - -
29/07:50pm 15.2 10.8 10.3 72 2.6 SSW 24 26 13 14 1014.6 - -
29/07:40pm 14.8 10.7 10.2 74 2.4 SSW 22 26 12 14 1014.6 - -
29/07:30pm 14.5 10.8 10.0 74 2.3 SSW 20 24 11 13 1014.7 - -
29/07:20pm 14.3 11.1 9.8 74 2.3 SSW 17 20 9 11 1014.6 - -
29/07:10pm 14.6 11.7 9.8 73 2.5 SSW 15 20 8 11 1014.6 - -
29/07:00pm 14.8 11.9 9.5 70 2.7 SSW 15 20 8 11 1014.7 - -
29/06:50pm 14.9 11.9 9.4 69 2.8 SSW 15 19 8 10 1014.6 - -
29/06:40pm 15.3 12.0 9.7 69 2.9 SSW 17 20 9 11 1014.6 - -
29/06:30pm 15.7 12.5 9.8 68 3.1 SW 17 22 9 12 1014.5 - -
29/06:20pm 15.7 11.8 9.5 66 3.2 SW 20 26 11 14 1014.4 - -
29/06:10pm 15.7 11.9 9.7 67 3.1 SW 20 26 11 14 1014.4 - -
29/06:00pm 15.7 11.9 9.7 67 3.1 SW 20 26 11 14 1014.4 - -
29/05:50pm 15.6 12.4 9.8 68 3.0 SW 17 22 9 12 1014.4 - -
29/05:40pm 15.7 12.1 9.7 67 3.1 SW 19 22 10 12 1014.5 - -
29/05:30pm 15.7 12.5 9.9 68 3.0 SW 17 20 9 11 1014.6 - -
29/05:20pm 15.7 12.1 9.9 68 3.0 SW 19 22 10 12 1014.5 - -
29/05:10pm 15.7 12.5 10.1 69 2.9 SW 17 20 9 11 1014.6 - -
29/05:00pm 15.7 12.1 10.0 69 3.0 SW 19 22 10 12 1014.6 - -
29/04:50pm 15.8 12.2 9.9 68 3.1 SW 19 22 10 12 1014.7 - -
29/04:40pm 15.8 12.2 9.7 67 3.2 SW 19 22 10 12 1014.8 - -
29/04:30pm 15.8 12.1 9.4 65 3.3 SW 19 22 10 12 1014.7 - -
29/04:20pm 15.8 12.5 9.6 66 3.2 SW 17 22 9 12 1014.8 - -
29/04:10pm 15.9 12.9 9.3 65 3.4 SW 15 19 8 10 1015.0 - -
29/04:00pm 16.2 13.2 9.1 63 3.7 SW 15 17 8 9 1015.1 - -
29/03:50pm 16.5 13.4 9.0 61 3.9 WSW 15 19 8 10 1015.2 - -
29/03:40pm 16.5 13.4 8.7 60 4.0 WSW 15 17 8 9 1015.3 - -
29/03:30pm 16.7 13.2 8.7 59 4.1 WSW 17 20 9 11 1015.3 - -
29/03:10pm 16.7 12.5 8.2 57 4.3 SW 20 24 11 13 1015.6 - -
29/03:00pm 16.8 12.6 8.2 57 4.4 WSW 20 22 11 12 1015.6 - -
29/02:50pm 16.7 11.9 7.4 54 4.7 WSW 22 28 12 15 1015.8 - -
29/02:40pm 16.9 12.2 7.9 55 4.6 SW 22 28 12 15 1015.8 - -
29/02:30pm 16.9 12.2 7.8 55 4.6 WSW 22 28 12 15 1015.8 - -
29/02:20pm 16.8 12.1 7.8 55 4.5 WSW 22 26 12 14 1015.9 - -
29/02:10pm 16.8 11.4 7.8 55 4.5 WSW 26 30 14 16 1015.9 - -
29/02:00pm 17.0 11.2 8.1 55 4.5 WSW 28 33 15 18 1015.7 - -
29/01:50pm 17.1 12.5 8.0 55 4.6 WSW 22 30 12 16 1016.0 - -
29/01:40pm 17.0 12.7 7.8 54 4.7 WSW 20 26 11 14 1016.1 - -
29/01:30pm 17.1 12.4 7.6 53 4.8 WSW 22 26 12 14 1016.0 - -
29/01:20pm 17.1 12.3 7.4 53 4.9 WSW 22 26 12 14 1016.3 - -
29/01:10pm 17.0 12.2 7.3 53 4.9 WSW 22 28 12 15 1016.3 - -
29/01:00pm 17.0 12.7 7.9 55 4.6 WSW 20 26 11 14 1016.5 - -
29/12:50pm 17.2 13.0 8.1 55 4.6 WSW 20 24 11 13 1016.6 - -
29/12:40pm 17.0 12.0 7.9 55 4.6 WSW 24 32 13 17 1016.6 - -
29/12:30pm 17.2 12.0 7.4 52 4.9 WSW 24 30 13 16 1016.8 - -
29/12:20pm 17.2 11.3 7.4 52 4.9 WSW 28 33 15 18 1016.6 - -
29/12:10pm 17.1 11.7 8.0 55 4.6 WSW 26 32 14 17 1016.8 - -
29/12:00pm 17.2 11.4 7.9 54 4.7 WSW 28 32 15 17 1016.8 - -
29/11:50am 17.1 11.0 8.2 56 4.5 WSW 30 35 16 19 1016.6 - -
29/11:40am 16.9 11.6 8.6 58 4.3 WSW 26 33 14 18 1016.9 - -
29/11:20am 16.7 10.6 8.4 58 4.2 WSW 30 35 16 19 1016.7 - -
29/11:10am 16.2 10.1 8.4 60 4.0 WSW 30 35 16 19 1016.7 - -
29/11:00am 15.9 9.5 8.4 61 3.8 WSW 32 35 17 19 1016.5 - -
29/10:50am 15.3 9.2 8.3 63 3.5 WSW 30 33 16 18 1016.6 - -
29/10:40am 15.0 8.5 8.3 64 3.4 WSW 32 39 17 21 1016.4 - -
29/10:30am 14.9 7.9 8.4 65 3.3 WSW 35 43 19 23 1016.3 - -
29/10:20am 14.9 8.2 8.3 64 3.3 WSW 33 37 18 20 1016.3 - -
29/10:10am 15.0 8.6 8.5 65 3.3 WSW 32 39 17 21 1016.2 - -
29/10:00am 15.1 8.7 8.6 65 3.3 WSW 32 39 17 21 1016.3 - -
29/09:50am 15.0 8.6 8.4 64 3.3 WSW 32 35 17 19 1016.2 - -
29/09:40am 15.0 8.3 8.2 64 3.4 WSW 33 39 18 21 1016.0 - -
29/09:30am 15.0 7.9 8.0 63 3.5 WSW 35 41 19 22 1015.9 - -
29/09:20am 14.9 8.2 8.1 64 3.4 WSW 33 39 18 21 1015.9 - -
29/09:10am 14.7 8.0 8.2 65 3.3 WSW 33 37 18 20 1015.7 - -
29/09:00am 14.6 7.5 8.0 64 3.3 WSW 35 41 19 22 1015.7 - -
29/08:50am 14.6 7.5 7.9 64 3.3 WSW 35 41 19 22 1015.6 - -
29/08:40am 14.7 7.2 7.9 63 3.4 WSW 37 43 20 23 1015.4 - -
29/08:30am 15.1 7.6 8.0 62 3.6 WSW 37 44 20 24 1015.2 - -
29/08:20am 15.4 8.0 8.2 62 3.6 WSW 37 46 20 25 1015.1 - -
29/08:10am 15.5 8.3 7.5 59 4.0 WSW 35 44 19 24 1015.1 - -
29/08:00am 15.3 6.8 6.8 57 4.2 WSW 41 46 22 25 1014.7 - -
29/07:50am 14.5 5.9 6.6 59 3.8 WSW 41 48 22 26 1014.5 - -
29/07:40am 14.2 5.2 6.6 60 3.7 WSW 43 48 23 26 1014.4 - -
29/07:30am 14.1 5.9 6.6 60 3.6 WSW 39 44 21 24 1014.4 - -
29/07:20am 14.0 5.4 6.6 61 3.6 WSW 41 46 22 25 1014.4 - -
29/07:00am 14.1 5.6 6.8 61 3.5 WSW 41 50 22 27 1014.1 - -
29/06:50am 14.1 5.9 6.4 60 3.7 WSW 39 46 21 25 1014.1 - -
29/06:40am 13.9 5.4 6.8 62 3.4 WSW 41 52 22 28 1013.9 - -
29/06:30am 13.7 6.0 6.9 63 3.3 SW 37 44 20 24 1013.9 - -
29/06:20am 13.8 6.8 6.9 63 3.3 SW 33 41 18 22 1014.2 - -
29/06:10am 14.0 5.8 6.5 60 3.6 SW 39 44 21 24 1014.0 - -
29/06:00am 14.1 5.8 6.2 59 3.8 WSW 39 46 21 25 1013.8 - -
29/05:50am 14.1 5.4 6.2 59 3.8 WSW 41 48 22 26 1013.7 - -
29/05:40am 14.1 5.9 6.4 60 3.7 WSW 39 46 21 25 1013.8 - -
29/05:30am 14.0 6.2 6.6 61 3.6 WSW 37 46 20 25 1013.9 - -
29/05:20am 13.8 5.2 6.3 60 3.6 SW 41 48 22 26 1013.8 - -
29/05:10am 13.9 5.2 6.2 59 3.7 SW 41 48 22 26 1013.6 - -
29/05:00am 13.7 4.6 5.7 58 3.8 SW 43 50 23 27 1013.4 - -
29/04:50am 13.8 4.7 5.7 58 3.8 SW 43 54 23 29 1013.5 - -
29/04:40am 13.9 4.7 5.5 57 4.0 WSW 43 52 23 28 1013.5 - -
29/04:30am 13.9 4.2 5.8 58 3.8 SW 46 54 25 29 1013.3 - -
29/04:20am 13.8 4.5 5.9 59 3.8 SW 44 54 24 29 1013.3 - -
29/04:10am 13.7 4.3 7.1 64 3.2 WSW 46 57 25 31 1013.3 - -
29/03:50am 13.8 5.6 8.1 68 2.8 WSW 41 50 22 27 1013.3 - -
29/03:40am 13.9 5.1 8.0 67 2.9 WSW 44 52 24 28 1013.2 - -
29/03:30am 13.9 5.1 7.1 63 3.3 SW 43 56 23 30 1013.3 - -
29/03:20am 13.9 4.9 7.1 63 3.3 SW 44 52 24 28 1013.4 - -
29/03:10am 13.9 4.8 7.0 63 3.4 SW 44 54 24 29 1013.3 - -
29/03:00am 13.9 5.4 6.9 62 3.4 SW 41 50 22 27 1013.3 - -
29/02:50am 14.0 4.9 6.6 61 3.6 SW 44 56 24 30 1013.0 - -
29/02:40am 14.0 4.1 6.7 61 3.5 WSW 48 57 26 31 1012.9 - -
29/02:30am 14.0 3.7 6.3 60 3.7 WSW 50 61 27 33 1012.8 - -
29/02:20am 14.0 4.1 6.4 60 3.7 WSW 48 59 26 32 1012.8 - -
29/02:10am 14.0 3.7 6.7 61 3.5 WSW 50 61 27 33 1012.9 - -
29/02:00am 13.7 4.1 6.4 61 3.5 WSW 46 56 25 30 1013.0 - -
29/01:50am 13.7 2.5 6.1 60 3.6 WSW 54 65 29 35 1012.7 - -
29/01:40am 13.6 2.1 6.1 60 3.6 WSW 56 63 30 34 1012.7 - -
29/01:30am 13.5 2.4 6.2 61 3.5 WSW 54 63 29 34 1012.9 - -
29/01:20am 13.4 2.8 6.7 64 3.2 WSW 52 61 28 33 1013.0 - -
29/01:00am 13.1 3.9 8.0 71 2.5 WSW 46 56 25 30 1013.1 - -
29/12:50am 13.2 3.2 7.9 70 2.6 SW 50 63 27 34 1013.3 - -
29/12:40am 13.8 2.6 7.5 66 3.1 SW 56 69 30 37 1013.3 - -
29/12:30am 14.2 3.5 6.5 60 3.7 WSW 52 67 28 36 1012.4 - -
29/12:20am 14.1 3.3 6.1 58 3.8 WSW 52 61 28 33 1012.1 - -
29/12:10am 14.0 2.4 5.8 57 3.9 WSW 56 70 30 38 1011.6 - -
29/12:00am 14.1 2.9 6.0 58 3.9 WSW 54 65 29 35 1011.5 - -
 
Date/Time
EDT
Temp
°C
App
Temp
°C
Dew
Point
Rel
Hum
%
Delta-T
°C
Wind Press
QNH
hPa
Press
MSL
hPa
Rain
since 9 am
mm
Dir
 
Spd
km/h
Gust
km/h
Spd
kts
Gust
kts
28/11:50pm 14.8 4.1 6.3 56 4.1 WSW 52 65 28 35 1011.6 - -
28/11:40pm 15.0 3.9 6.5 57 4.1 WSW 54 67 29 36 1011.4 - -
28/11:30pm 14.1 2.4 5.4 56 4.1 SW 56 67 30 36 1011.3 - -
28/11:20pm 14.1 2.4 5.5 56 4.1 SW 56 69 30 37 1011.3 - -
28/11:10pm 14.1 2.5 5.8 57 3.9 SW 56 67 30 36 1011.3 - -
28/11:00pm 14.2 3.0 5.8 57 4.0 WSW 54 65 29 35 1011.3 - -
28/10:50pm 14.2 2.0 5.6 56 4.1 WSW 59 69 32 37 1011.0 - -
28/10:40pm 14.2 1.3 5.7 56 4.0 WSW 63 80 34 43 1010.8 - -
28/10:30pm 14.1 2.1 6.4 60 3.7 WSW 59 74 32 40 1010.8 - -
28/10:20pm 14.2 2.2 6.4 59 3.8 SW 59 69 32 37 1010.6 - -
28/10:10pm 14.3 2.7 6.6 60 3.7 WSW 57 72 31 39 1010.4 - -
28/10:00pm 14.3 2.3 6.5 59 3.8 WSW 59 72 32 39 1010.4 - -
28/09:50pm 14.2 1.7 6.0 58 3.9 WSW 61 72 33 39 1010.2 - -
28/09:40pm 14.2 2.2 6.7 60 3.6 WSW 59 76 32 41 1010.1 - -
28/09:20pm 14.2 3.0 7.7 65 3.2 SW 56 69 30 37 1010.0 - -
28/09:10pm 14.4 3.1 7.3 62 3.5 SW 56 67 30 36 1010.0 - -
28/09:00pm 14.5 2.1 6.4 58 3.9 WSW 61 72 33 39 1009.4 - -
28/08:50pm 14.5 1.6 6.0 56 4.1 WSW 63 78 34 42 1009.3 - -
28/08:40pm 14.5 0.5 6.0 56 4.1 WSW 69 82 37 44 1009.1 - -
28/08:30pm 14.5 0.9 6.0 56 4.1 WSW 67 82 36 44 1009.0 - -
28/08:20pm 14.5 0.3 5.9 56 4.1 WSW 70 85 38 46 1008.8 - -
28/08:10pm 14.6 -0.1 5.7 55 4.2 SW 72 83 39 45 1008.6 - -
28/08:00pm 14.6 1.0 6.2 57 4.0 SW 67 83 36 45 1008.6 - -
28/07:50pm 14.7 1.2 6.5 58 4.0 SW 67 80 36 43 1008.5 - -
28/07:40pm 14.6 0.1 6.3 57 4.0 SW 72 85 39 46 1008.2 - -
28/07:30pm 14.7 0.3 6.8 59 3.9 SW 72 89 39 48 1008.0 - -
28/07:20pm 14.7 0.4 7.2 61 3.7 SW 72 85 39 46 1007.8 - -
28/07:10pm 14.6 0.3 7.3 61 3.6 SW 72 89 39 48 1007.5 - -
28/07:00pm 14.6 0.8 8.0 64 3.3 SW 70 85 38 46 1007.5 - -
28/06:50pm 14.8 1.2 8.5 66 3.2 SW 70 87 38 47 1007.4 - -
28/06:40pm 15.0 0.7 7.5 61 3.7 WSW 72 85 39 46 1007.0 - -
28/06:30pm 14.8 1.0 7.9 63 3.4 WSW 70 87 38 47 1006.8 - -
28/06:20pm 15.0 0.8 9.1 68 3.0 WSW 74 91 40 49 1006.9 - -
28/06:10pm 15.2 2.7 9.4 68 3.0 WSW 65 85 35 46 1006.8 - -
28/06:00pm 15.0 1.7 9.0 67 3.1 WSW 69 82 37 44 1006.6 - -
28/05:50pm 15.1 2.6 9.1 67 3.1 SW 65 85 35 46 1006.6 - -
28/05:40pm 15.5 2.1 8.7 64 3.5 SW 69 87 37 47 1006.3 - -
28/05:30pm 15.8 1.7 8.3 61 3.8 WSW 72 87 39 47 1006.1 - -
28/05:20pm 15.9 2.6 8.9 63 3.6 WSW 69 89 37 48 1006.1 - -
28/05:10pm 15.7 4.0 9.2 65 3.4 WSW 61 74 33 40 1006.4 - -
28/05:00pm 15.7 3.5 8.9 64 3.5 WSW 63 76 34 41 1006.2 - -
28/04:50pm 15.5 3.2 8.6 63 3.5 WSW 63 78 34 42 1006.1 - -
28/04:40pm 15.5 4.0 8.5 63 3.6 WSW 59 72 32 39 1006.1 - -
28/04:30pm 15.5 3.5 8.3 62 3.6 WSW 61 72 33 39 1006.1 - -
28/04:20pm 15.7 4.5 8.5 62 3.7 WSW 57 72 31 39 1006.1 - -
28/04:10pm 15.8 3.4 8.1 60 3.9 WSW 63 82 34 44 1005.9 - -
28/04:00pm 15.8 4.2 8.4 61 3.8 WSW 59 76 32 41 1006.1 - -
28/03:50pm 15.8 4.3 8.6 62 3.7 WSW 59 74 32 40 1006.0 - -
28/03:40pm 15.9 4.8 8.6 62 3.7 WSW 57 74 31 40 1006.1 - -
28/03:30pm 16.0 3.3 8.4 60 3.9 WSW 65 78 35 42 1005.9 - -
28/03:20pm 15.9 3.2 8.6 62 3.7 WSW 65 80 35 43 1005.8 - -
28/03:10pm 15.9 2.8 8.4 61 3.8 SW 67 82 36 44 1005.7 - -
28/03:00pm 16.0 3.7 8.7 62 3.7 WSW 63 76 34 41 1005.6 - -
28/02:50pm 16.1 4.0 9.2 63 3.6 WSW 63 74 34 40 1005.5 - -
28/02:40pm 16.0 5.0 9.2 64 3.5 WSW 57 69 31 37 1005.6 - -
28/02:30pm 15.9 3.3 8.8 62 3.6 WSW 65 76 35 41 1005.3 - -
28/02:10pm 15.5 3.1 9.5 67 3.1 WSW 65 83 35 45 1005.2 - -
28/02:00pm 15.6 3.7 9.9 69 3.0 WSW 63 74 34 40 1005.3 - -
28/01:50pm 16.0 5.4 10.1 68 3.1 WSW 56 80 30 43 1005.5 - -
28/01:40pm 15.7 5.0 10.2 70 2.9 WSW 57 74 31 40 1005.3 - -
28/01:30pm 15.3 4.8 10.4 72 2.6 WSW 56 69 30 37 1005.5 - -
28/01:20pm 15.0 5.2 10.2 73 2.5 WSW 52 69 28 37 1005.6 - -
28/01:10pm 15.0 3.8 9.9 71 2.7 WSW 59 78 32 42 1005.5 - -
28/01:00pm 16.1 4.5 9.6 65 3.4 WSW 61 78 33 42 1005.4 - -
28/12:50pm 16.6 6.1 8.8 60 4.0 W 54 69 29 37 1005.4 - -
28/12:40pm 16.8 7.1 8.9 59 4.1 W 50 59 27 32 1005.4 - -
28/12:30pm 16.9 6.7 8.4 57 4.3 W 52 63 28 34 1005.4 - -
28/12:20pm 16.9 5.3 8.1 56 4.5 W 59 69 32 37 1005.2 - -
28/12:10pm 16.9 4.9 8.3 57 4.4 W 61 74 33 40 1005.2 - -
28/12:00pm 16.8 5.3 8.6 58 4.2 W 59 74 32 40 1005.1 - -
28/11:50am 16.8 5.3 8.5 58 4.2 W 59 74 32 40 1005.0 - -
28/11:40am 16.7 4.7 8.4 58 4.2 W 61 76 33 41 1004.9 - -
28/11:30am 16.6 4.6 8.3 58 4.2 W 61 74 33 40 1005.0 - -
28/11:20am 16.8 5.6 8.5 58 4.2 W 57 70 31 38 1005.2 - -
28/11:10am 16.7 5.2 8.5 58 4.2 W 59 70 32 38 1005.1 - -
28/11:00am 16.7 5.1 8.4 58 4.2 W 59 72 32 39 1005.1 - -
28/10:50am 16.7 5.7 8.5 58 4.2 W 56 69 30 37 1005.3 - -
28/10:40am 16.7 5.1 8.1 57 4.4 W 59 70 32 38 1005.1 - -
28/10:30am 16.5 4.8 7.7 56 4.4 W 59 72 32 39 1005.1 - -
28/10:20am 16.6 5.5 8.0 57 4.4 W 56 67 30 36 1005.1 - -
28/10:10am 16.6 4.8 7.6 55 4.5 W 59 74 32 40 1005.0 - -

Other Formats:

Comma delimited format used in spreadsheet applications
http://www.bom.gov.au/fwo/IDV60801/IDV60801.55039.axf

JavaScript Object Notation format (JSON) in row-major order
http://www.bom.gov.au/fwo/IDV60801/IDV60801.55039.json